Onil, Spain
Current Conditions -  °F | °C
As of 6:00 PM on Saturday 25 Oct 2014 (Local Time) from LEAL Reporting Station
Clear Clear  
Wind Chill: 26°   Ceiling: Unl
Heat Index: 26°   Visibility: 6mi
Dew Point:   Wind: 6mph
Humidity: 32%   Direction: 80°E
Pressure: 30.09"   Gusts: NA
Location:  38.63°N, 0.67°W
Report Text: LEAL 251600Z 08005KT CAVOK 26/08 Q1019 NOSIG
Loading
Personal Weather Stations






























Interactive Weather Map
Tropical Storm Tracking
New forecast layout! Learn more

10-Day Weather Forecast

Advertisements
Track Severe Weather on mobile